createdAt,value
2019-03-08T00:00:19.614Z,66.90
2019-03-08T00:02:46.706Z,66.80
2019-03-08T00:05:13.343Z,66.70
2019-03-08T00:07:39.627Z,66.50
2019-03-08T00:10:06.181Z,67.30
2019-03-08T00:12:32.562Z,66.60
2019-03-08T00:14:58.847Z,65.80
2019-03-08T00:17:25.137Z,65.80
2019-03-08T00:19:51.494Z,65.70
2019-03-08T00:22:17.862Z,65.80
2019-03-08T00:24:44.399Z,65.60
2019-03-08T00:27:10.699Z,65.50
2019-03-08T00:29:36.914Z,65.50
2019-03-08T00:32:03.267Z,64.70
2019-03-08T00:34:29.587Z,65.30
2019-03-08T00:36:55.839Z,65.20
2019-03-08T00:39:22.090Z,64.80
2019-03-08T00:41:48.672Z,64.80
2019-03-08T00:44:14.922Z,64.90
2019-03-08T00:47:03.079Z,65.10
2019-03-08T00:49:29.382Z,65.10
2019-03-08T00:51:55.626Z,64.90
2019-03-08T00:54:21.901Z,64.90
2019-03-08T00:56:48.329Z,65.00
2019-03-08T00:59:14.758Z,64.80
2019-03-08T01:01:41.022Z,64.90
2019-03-08T01:04:07.261Z,65.00
2019-03-08T01:06:33.538Z,65.10
2019-03-08T01:09:00.015Z,65.20
2019-03-08T01:11:26.279Z,65.30
2019-03-08T01:13:52.677Z,64.90
2019-03-08T01:16:19.037Z,64.80
2019-03-08T01:18:45.349Z,64.50
2019-03-08T01:21:11.703Z,64.50
2019-03-08T01:23:38.182Z,64.50
2019-03-08T01:26:04.608Z,64.60
2019-03-08T01:28:32.960Z,64.80
2019-03-08T01:30:59.427Z,65.10
2019-03-08T01:33:25.701Z,65.10
2019-03-08T01:35:51.954Z,65.00
2019-03-08T01:38:18.200Z,64.60
2019-03-08T01:40:44.556Z,64.50
2019-03-08T01:43:10.791Z,64.60
2019-03-08T01:45:37.069Z,64.70
2019-03-08T01:48:17.068Z,64.60
2019-03-08T01:50:43.342Z,64.70
2019-03-08T01:53:09.702Z,64.80
2019-03-08T01:55:36.076Z,64.80
2019-03-08T01:58:10.008Z,64.80
2019-03-08T02:00:36.450Z,65.10
2019-03-08T02:03:03.218Z,64.90
2019-03-08T02:05:29.474Z,64.80
2019-03-08T02:07:55.830Z,64.70
2019-03-08T02:10:22.141Z,64.90
2019-03-08T02:12:48.488Z,64.60
2019-03-08T02:15:17.082Z,64.60
2019-03-08T02:17:43.460Z,64.40
2019-03-08T02:20:14.440Z,64.30
2019-03-08T02:22:40.794Z,64.20
2019-03-08T02:25:07.467Z,64.30
2019-03-08T02:27:33.827Z,64.40
2019-03-08T02:30:00.411Z,64.90
2019-03-08T02:32:26.805Z,65.40
2019-03-08T02:34:53.081Z,65.30
2019-03-08T02:37:19.433Z,65.40
2019-03-08T02:39:45.678Z,66.50
2019-03-08T02:42:11.943Z,66.30
2019-03-08T02:44:38.234Z,66.50
2019-03-08T02:47:04.535Z,66.80
2019-03-08T02:49:30.851Z,67.30
2019-03-08T02:51:57.103Z,67.00
2019-03-08T02:54:23.570Z,67.60
2019-03-08T02:56:49.835Z,67.20
2019-03-08T02:59:16.085Z,67.70
2019-03-08T03:01:42.445Z,67.90
2019-03-08T03:04:08.692Z,68.20
2019-03-08T03:06:35.007Z,67.90
2019-03-08T03:09:01.242Z,67.80
2019-03-08T03:11:27.802Z,67.50
2019-03-08T03:13:54.083Z,67.70
2019-03-08T03:16:20.341Z,67.80
2019-03-08T03:18:46.650Z,68.00
2019-03-08T03:21:12.866Z,67.90
2019-03-08T03:23:39.148Z,68.00
2019-03-08T03:26:05.422Z,67.90
2019-03-08T03:28:31.679Z,67.50
2019-03-08T03:30:58.064Z,67.50
2019-03-08T03:33:24.326Z,67.80
2019-03-08T03:35:50.698Z,68.00
2019-03-08T03:38:16.985Z,68.20
2019-03-08T03:40:43.288Z,68.40
2019-03-08T03:43:11.636Z,68.20
2019-03-08T03:45:37.892Z,68.00
2019-03-08T03:48:04.543Z,68.00
2019-03-08T03:50:30.818Z,67.80
2019-03-08T03:52:57.069Z,67.70
2019-03-08T03:55:23.335Z,68.00
2019-03-08T03:57:49.658Z,67.90
2019-03-08T04:00:21.837Z,68.30
2019-03-08T04:02:48.249Z,68.30
2019-03-08T04:05:14.582Z,68.00
2019-03-08T04:07:40.943Z,68.40
2019-03-08T04:10:13.730Z,68.90
2019-03-08T04:12:40.017Z,68.90
2019-03-08T04:15:10.837Z,69.20
2019-03-08T04:17:37.081Z,69.00
2019-03-08T04:20:08.333Z,68.90
2019-03-08T04:22:34.646Z,69.00
2019-03-08T04:25:00.896Z,68.50
2019-03-08T04:27:27.149Z,68.30
2019-03-08T04:29:53.400Z,67.90
2019-03-08T04:32:19.702Z,67.50
2019-03-08T04:34:45.981Z,67.90
2019-03-08T04:37:12.491Z,68.40
2019-03-08T04:39:38.746Z,68.30
2019-03-08T04:42:05.023Z,68.30
2019-03-08T04:44:31.523Z,68.30
2019-03-08T04:46:57.777Z,68.30
2019-03-08T04:49:24.203Z,68.10
2019-03-08T04:51:50.452Z,67.90
2019-03-08T04:54:16.705Z,67.80
2019-03-08T04:56:42.983Z,67.40
2019-03-08T04:59:09.230Z,67.40
2019-03-08T05:01:35.589Z,67.10
2019-03-08T05:04:01.997Z,67.00
2019-03-08T05:06:28.716Z,66.60
2019-03-08T05:08:55.297Z,66.50
2019-03-08T05:11:21.796Z,66.10
2019-03-08T05:13:48.138Z,66.10
2019-03-08T05:16:14.675Z,66.50
2019-03-08T05:18:40.917Z,66.30
2019-03-08T05:21:07.168Z,66.30
2019-03-08T05:23:33.576Z,66.40
2019-03-08T05:25:59.847Z,65.70
2019-03-08T05:28:26.093Z,65.90
2019-03-08T05:30:52.540Z,65.80
2019-03-08T05:33:18.850Z,66.00
2019-03-08T05:35:45.144Z,65.80
2019-03-08T05:38:11.402Z,65.80
2019-03-08T05:40:37.670Z,65.90
2019-03-08T05:43:04.151Z,65.70
2019-03-08T05:45:30.530Z,65.60
2019-03-08T05:47:56.773Z,66.00
2019-03-08T05:50:23.315Z,65.90
2019-03-08T05:52:49.578Z,65.90
2019-03-08T05:55:15.824Z,65.90
2019-03-08T05:57:42.184Z,66.00
2019-03-08T06:00:15.986Z,65.90
2019-03-08T06:02:42.356Z,65.10
2019-03-08T06:05:08.807Z,65.60
2019-03-08T06:07:35.380Z,65.80
2019-03-08T06:10:03.152Z,65.90
2019-03-08T06:12:29.389Z,65.80
2019-03-08T06:14:55.687Z,65.80
2019-03-08T06:17:21.957Z,65.80
2019-03-08T06:19:48.248Z,65.80
2019-03-08T06:22:14.518Z,66.00
2019-03-08T06:24:40.761Z,65.80
2019-03-08T06:27:07.451Z,65.90
2019-03-08T06:29:33.722Z,68.70
2019-03-08T06:32:00.021Z,72.90
2019-03-08T06:34:26.267Z,71.00
2019-03-08T06:37:14.023Z,68.50
2019-03-08T06:39:40.668Z,68.20
2019-03-08T06:42:06.948Z,66.20
2019-03-08T06:44:33.217Z,66.30
2019-03-08T06:46:59.504Z,66.10
2019-03-08T06:49:28.541Z,66.00
2019-03-08T06:51:54.818Z,65.90
2019-03-08T06:54:21.110Z,65.60
2019-03-08T06:56:47.380Z,65.50
2019-03-08T06:59:18.497Z,65.30
2019-03-08T07:01:44.750Z,64.60
2019-03-08T07:04:11.044Z,64.70
2019-03-08T07:06:37.428Z,64.20
2019-03-08T07:09:05.871Z,64.10
2019-03-08T07:11:32.153Z,64.10
2019-03-08T07:13:58.390Z,64.00
2019-03-08T07:16:24.862Z,64.00
2019-03-08T07:18:51.875Z,64.30
2019-03-08T07:21:26.043Z,64.90
2019-03-08T07:23:59.808Z,64.80
2019-03-08T07:26:28.170Z,64.90
2019-03-08T07:28:57.455Z,64.60
2019-03-08T07:31:28.591Z,64.30
2019-03-08T07:33:56.851Z,64.60
2019-03-08T07:36:25.272Z,64.20
2019-03-08T07:39:11.422Z,63.40
2019-03-08T07:44:33.566Z,63.90
2019-03-08T07:47:13.830Z,63.50
2019-03-08T07:49:47.795Z,63.30
2019-03-08T07:52:21.915Z,63.10
2019-03-08T07:55:02.188Z,63.20
2019-03-08T07:57:46.991Z,63.10
2019-03-08T08:00:29.190Z,63.10
2019-03-08T08:03:03.540Z,64.80
2019-03-08T08:05:36.471Z,66.10
2019-03-08T08:08:07.583Z,66.50
2019-03-08T08:10:44.721Z,63.30
2019-03-08T08:13:12.885Z,63.10
2019-03-08T08:15:46.970Z,62.80
2019-03-08T08:18:21.083Z,61.90
2019-03-08T08:20:58.248Z,61.30
2019-03-08T08:23:37.324Z,60.70
2019-03-08T08:26:24.043Z,61.10
2019-03-08T08:28:52.191Z,62.70
2019-03-08T08:31:27.195Z,62.00
2019-03-08T08:34:04.468Z,61.20
2019-03-08T08:36:32.644Z,61.20
2019-03-08T08:39:06.908Z,60.90
2019-03-08T08:41:40.987Z,60.30
2019-03-08T08:44:12.001Z,60.50
2019-03-08T08:46:43.086Z,61.10
2019-03-08T08:49:19.963Z,61.80
2019-03-08T08:51:48.151Z,61.10
2019-03-08T08:54:19.294Z,62.00
2019-03-08T08:57:02.400Z,62.50
2019-03-08T08:59:48.885Z,63.70
2019-03-08T09:02:28.938Z,62.10
2019-03-08T09:05:01.255Z,62.30
2019-03-08T09:07:29.897Z,61.30
2019-03-08T09:10:10.085Z,60.80
2019-03-08T09:12:52.990Z,60.50
2019-03-08T09:15:23.792Z,61.10
2019-03-08T09:17:54.608Z,61.20
2019-03-08T09:20:28.594Z,60.30
2019-03-08T09:22:56.773Z,59.70
2019-03-08T09:25:27.641Z,60.00
2019-03-08T09:27:55.884Z,59.20
2019-03-08T09:30:26.977Z,60.10
2019-03-08T09:33:11.626Z,60.00
2019-03-08T09:35:54.664Z,60.70
2019-03-08T09:38:22.869Z,60.00
2019-03-08T09:41:07.958Z,60.10
2019-03-08T09:43:52.726Z,61.50
2019-03-08T09:46:20.913Z,60.90
2019-03-08T09:48:51.994Z,61.70
2019-03-08T09:51:26.527Z,61.80
2019-03-08T09:54:11.207Z,61.90
2019-03-08T09:56:39.411Z,60.30
2019-03-08T09:59:13.287Z,59.80
2019-03-08T10:01:56.398Z,60.90
2019-03-08T10:04:39.625Z,59.70
2019-03-08T10:07:13.476Z,58.50
2019-03-08T10:09:41.642Z,56.90
2019-03-08T10:12:15.645Z,57.20
2019-03-08T10:14:49.743Z,58.50
2019-03-08T10:17:17.925Z,58.20
2019-03-08T10:19:46.205Z,57.70
2019-03-08T10:22:32.507Z,57.60
2019-03-08T10:25:00.668Z,57.20
2019-03-08T10:27:37.861Z,56.70
2019-03-08T10:30:16.504Z,56.80
2019-03-08T10:32:47.338Z,57.90
2019-03-08T10:35:24.021Z,57.20
2019-03-08T10:37:52.395Z,57.70
2019-03-08T10:40:21.367Z,57.50
2019-03-08T10:42:49.750Z,55.40
2019-03-08T10:45:20.770Z,55.90
2019-03-08T10:47:56.083Z,55.90
2019-03-08T10:50:24.696Z,55.20
2019-03-08T10:52:55.788Z,55.60
2019-03-08T10:55:32.837Z,55.80
2019-03-08T10:58:13.172Z,56.10
2019-03-08T11:00:58.109Z,57.20
2019-03-08T11:03:32.008Z,57.00
2019-03-08T11:06:00.213Z,56.50
2019-03-08T11:08:37.578Z,56.40
2019-03-08T11:11:23.692Z,55.70
2019-03-08T11:13:51.886Z,55.10
2019-03-08T11:16:26.479Z,55.60
2019-03-08T11:19:08.824Z,55.00
2019-03-08T11:21:39.596Z,55.30
2019-03-08T11:24:25.974Z,55.40
2019-03-08T11:27:04.783Z,54.80
2019-03-08T11:29:41.737Z,54.40
2019-03-08T11:32:22.687Z,53.70
2019-03-08T11:34:52.059Z,54.40
2019-03-08T11:37:21.337Z,53.90
2019-03-08T11:39:52.173Z,53.70
2019-03-08T11:42:20.349Z,53.60
2019-03-08T11:45:03.271Z,53.60
2019-03-08T11:47:36.792Z,54.00
2019-03-08T11:50:24.906Z,54.10
2019-03-08T11:52:55.933Z,54.40
2019-03-08T11:55:39.049Z,53.70
2019-03-08T11:58:07.228Z,52.20
2019-03-08T12:00:35.430Z,53.00
2019-03-08T12:03:03.708Z,51.70
2019-03-08T12:05:37.789Z,52.50
2019-03-08T12:08:18.425Z,52.10
2019-03-08T12:10:46.700Z,51.90
2019-03-08T12:13:17.458Z,52.50
2019-03-08T12:15:58.414Z,52.40
2019-03-08T12:18:35.685Z,50.90
2019-03-08T12:21:03.895Z,50.70
2019-03-08T12:23:34.710Z,51.60
2019-03-08T12:26:03.031Z,52.60
2019-03-08T12:28:43.690Z,50.40
2019-03-08T12:31:17.831Z,50.30
2019-03-08T12:33:49.714Z,51.50
2019-03-08T12:36:23.964Z,50.90
2019-03-08T12:39:01.085Z,51.20
2019-03-08T12:41:29.434Z,52.10
2019-03-08T12:44:15.606Z,51.30
2019-03-08T12:46:43.821Z,51.30
2019-03-08T12:49:16.747Z,51.10
2019-03-08T12:51:47.681Z,51.10
2019-03-08T12:54:36.254Z,51.30
2019-03-08T12:57:08.818Z,51.50
2019-03-08T12:59:50.432Z,51.50
2019-03-08T13:02:23.902Z,52.40
2019-03-08T13:05:09.171Z,52.40
2019-03-08T13:07:53.748Z,52.40
2019-03-08T13:10:23.301Z,52.10
2019-03-08T13:12:51.715Z,52.50
2019-03-08T13:15:19.738Z,52.50
2019-03-08T13:17:48.299Z,52.20
2019-03-08T13:20:19.398Z,52.50
2019-03-08T13:22:47.160Z,52.50
2019-03-08T13:25:14.851Z,52.30
2019-03-08T13:27:42.621Z,52.40
2019-03-08T13:30:15.522Z,52.10
2019-03-08T13:32:44.187Z,51.70
2019-03-08T13:35:13.831Z,52.60
2019-03-08T13:37:41.684Z,52.60
2019-03-08T13:40:15.307Z,52.70
2019-03-08T13:42:42.403Z,52.40
2019-03-08T13:45:19.220Z,52.60
2019-03-08T13:47:45.584Z,52.60
2019-03-08T13:50:13.598Z,52.60
2019-03-08T13:52:39.972Z,52.70
2019-03-08T13:55:15.656Z,52.70
2019-03-08T13:57:42.046Z,52.80
2019-03-08T14:00:15.278Z,52.70
2019-03-08T14:02:41.556Z,53.20
2019-03-08T14:05:08.527Z,53.30
2019-03-08T14:07:35.039Z,53.50
2019-03-08T14:10:01.357Z,54.20
2019-03-08T14:12:27.632Z,54.00
2019-03-08T14:14:55.416Z,54.40
2019-03-08T14:17:21.987Z,55.10
2019-03-08T14:19:48.254Z,54.90
2019-03-08T14:22:14.543Z,54.80
2019-03-08T14:24:41.352Z,55.30
2019-03-08T14:27:07.615Z,55.50
2019-03-08T14:29:33.873Z,55.80
2019-03-08T14:32:00.146Z,55.80
2019-03-08T14:34:26.407Z,55.70
2019-03-08T14:36:52.725Z,55.60
2019-03-08T14:39:18.995Z,56.20
2019-03-08T14:41:49.822Z,55.90
2019-03-08T14:44:31.258Z,56.40
2019-03-08T14:46:59.543Z,56.60
2019-03-08T14:49:25.786Z,57.00
2019-03-08T14:51:52.054Z,57.00
2019-03-08T14:54:18.512Z,57.00
2019-03-08T14:56:44.848Z,57.00
2019-03-08T14:59:15.229Z,57.40
2019-03-08T15:01:40.254Z,57.60
2019-03-08T15:04:09.924Z,57.70
2019-03-08T15:06:36.194Z,57.80
2019-03-08T15:09:08.598Z,57.80
2019-03-08T15:11:35.089Z,57.70
2019-03-08T15:14:01.374Z,57.60
2019-03-08T15:16:27.875Z,57.80
2019-03-08T15:18:54.821Z,57.80
2019-03-08T15:21:21.061Z,57.80
2019-03-08T15:23:50.873Z,57.50
2019-03-08T15:26:15.653Z,57.90
2019-03-08T15:28:41.912Z,58.30
2019-03-08T15:31:08.323Z,58.30
2019-03-08T15:33:34.687Z,58.80
2019-03-08T15:36:01.122Z,58.50
2019-03-08T15:38:27.372Z,58.60
2019-03-08T15:40:55.856Z,58.70
2019-03-08T15:43:22.467Z,58.90
2019-03-08T15:45:48.716Z,58.90
2019-03-08T15:48:15.917Z,58.70
2019-03-08T15:50:42.966Z,59.90
2019-03-08T15:53:10.581Z,60.00
2019-03-08T15:55:36.899Z,60.30
2019-03-08T15:58:03.451Z,60.30
2019-03-08T16:00:29.687Z,60.50
2019-03-08T16:02:56.175Z,60.80
2019-03-08T16:05:23.991Z,61.10
2019-03-08T16:07:51.204Z,61.30
2019-03-08T16:10:19.923Z,61.30
2019-03-08T16:12:46.700Z,61.50
2019-03-08T16:15:14.392Z,61.70
2019-03-08T16:17:40.759Z,61.90
2019-03-08T16:20:17.960Z,61.80
2019-03-08T16:22:44.570Z,62.10
2019-03-08T16:25:15.732Z,62.40
2019-03-08T16:27:42.400Z,62.70
2019-03-08T16:30:23.160Z,63.70
2019-03-08T16:32:51.514Z,63.40
2019-03-08T16:35:42.981Z,63.60
2019-03-08T16:38:11.150Z,63.60
2019-03-08T16:40:48.282Z,63.80
2019-03-08T16:43:16.538Z,64.20
2019-03-08T16:45:50.560Z,64.50
2019-03-08T16:48:18.416Z,64.50
2019-03-08T16:51:12.213Z,64.80
2019-03-08T16:53:40.830Z,64.80
2019-03-08T16:56:17.808Z,65.10
2019-03-08T16:58:48.887Z,65.20
2019-03-08T17:01:23.204Z,65.30
2019-03-08T17:04:06.419Z,65.40
2019-03-08T17:06:37.927Z,65.60
2019-03-08T17:09:16.426Z,65.80
2019-03-08T17:11:51.698Z,65.80
2019-03-08T17:14:26.043Z,66.00
2019-03-08T17:17:11.416Z,66.00
2019-03-08T17:19:39.767Z,66.20
2019-03-08T17:22:12.643Z,66.50
2019-03-08T17:24:40.940Z,66.80
2019-03-08T17:27:12.321Z,67.00
2019-03-08T17:29:40.802Z,66.90
2019-03-08T17:32:21.957Z,66.90
2019-03-08T17:34:50.128Z,67.10
2019-03-08T17:37:33.411Z,68.10
2019-03-08T17:40:04.526Z,67.50
2019-03-08T17:42:44.799Z,67.50
2019-03-08T17:45:22.121Z,67.60
2019-03-08T17:47:53.481Z,67.60
2019-03-08T17:50:33.828Z,67.70
2019-03-08T17:53:19.932Z,67.90
2019-03-08T17:55:52.681Z,68.00
2019-03-08T17:58:23.784Z,68.10
2019-03-08T18:01:08.181Z,68.20
2019-03-08T18:03:52.695Z,68.20
2019-03-08T18:06:26.973Z,68.30
2019-03-08T18:08:57.814Z,68.40
2019-03-08T18:11:40.952Z,68.30
2019-03-08T18:14:11.766Z,68.30
2019-03-08T18:16:56.816Z,68.30
2019-03-08T18:19:45.276Z,68.50
2019-03-08T18:22:13.523Z,68.60
2019-03-08T18:24:42.469Z,68.60
2019-03-08T18:27:13.577Z,68.80
2019-03-08T18:32:35.868Z,69.20
2019-03-08T18:35:05.958Z,69.20
2019-03-08T18:37:50.571Z,69.30
2019-03-08T18:40:28.027Z,69.20
2019-03-08T18:42:59.242Z,69.20
2019-03-08T18:45:30.531Z,69.30
2019-03-08T18:48:04.618Z,69.50
2019-03-08T18:50:49.508Z,69.30
2019-03-08T18:53:20.447Z,69.40
2019-03-08T18:56:05.516Z,69.60
2019-03-08T18:58:34.403Z,69.60
2019-03-08T19:01:05.753Z,69.70
2019-03-08T19:03:36.692Z,69.60
2019-03-08T19:06:04.953Z,69.70
2019-03-08T19:08:45.694Z,69.70
2019-03-08T19:11:30.821Z,69.70
2019-03-08T19:14:16.518Z,69.70
2019-03-08T19:16:53.622Z,69.70
2019-03-08T19:19:28.180Z,69.50
2019-03-08T19:22:02.504Z,69.50
2019-03-08T19:24:37.416Z,69.30
2019-03-08T19:27:09.544Z,69.40
2019-03-08T19:29:39.318Z,69.30
2019-03-08T19:32:11.521Z,69.40
2019-03-08T19:34:47.842Z,69.50
2019-03-08T19:37:20.655Z,69.40
2019-03-08T19:40:06.818Z,69.40
2019-03-08T19:42:51.659Z,69.50
2019-03-08T19:45:36.757Z,69.70
2019-03-08T19:48:08.933Z,69.50
2019-03-08T19:50:41.273Z,69.40
2019-03-08T19:53:14.115Z,69.60
2019-03-08T19:56:01.450Z,69.50
2019-03-08T19:58:39.817Z,69.50
2019-03-08T20:01:12.234Z,69.50
2019-03-08T20:03:47.826Z,69.50
2019-03-08T20:09:15.111Z,69.90
2019-03-08T20:12:01.416Z,70.10
2019-03-08T20:14:34.073Z,70.10
2019-03-08T20:17:20.906Z,69.90
2019-03-08T20:19:50.598Z,69.90
2019-03-08T20:22:20.650Z,69.80
2019-03-08T20:24:56.409Z,69.70
2019-03-08T20:27:35.571Z,69.80
2019-03-08T20:30:08.213Z,69.60
2019-03-08T20:32:41.065Z,69.50
2019-03-08T20:35:13.838Z,69.50
2019-03-08T20:37:55.367Z,69.50
2019-03-08T20:40:30.956Z,69.50
2019-03-08T20:43:18.921Z,69.60
2019-03-08T20:45:51.817Z,69.70
2019-03-08T20:48:26.460Z,69.90
2019-03-08T20:50:58.893Z,69.90
2019-03-08T20:53:30.951Z,69.80
2019-03-08T20:56:01.293Z,69.70
2019-03-08T20:58:30.412Z,69.60
2019-03-08T21:01:01.231Z,69.60
2019-03-08T21:03:32.111Z,69.60
2019-03-08T21:06:02.113Z,69.50
2019-03-08T21:08:32.205Z,69.30
2019-03-08T21:11:03.016Z,69.40
2019-03-08T21:13:31.854Z,69.20
2019-03-08T21:16:00.499Z,69.10
2019-03-08T21:18:29.447Z,69.10
2019-03-08T21:20:59.505Z,68.90
2019-03-08T21:23:27.929Z,68.80
2019-03-08T21:25:59.576Z,68.90
2019-03-08T21:28:27.911Z,68.90
2019-03-08T21:34:22.602Z,68.90
2019-03-08T21:36:50.396Z,68.80
2019-03-08T21:39:18.659Z,69.70
2019-03-08T21:41:46.648Z,69.00
2019-03-08T21:44:14.549Z,68.90
2019-03-08T21:46:42.400Z,68.90
2019-03-08T21:49:10.635Z,68.90
2019-03-08T21:51:38.531Z,68.90
2019-03-08T21:54:06.384Z,69.20
2019-03-08T21:56:35.840Z,68.90
2019-03-08T21:59:02.730Z,69.00
2019-03-08T22:01:30.474Z,69.00
2019-03-08T22:04:02.326Z,69.20
2019-03-08T22:06:29.399Z,69.10
2019-03-08T22:08:57.643Z,69.30
2019-03-08T22:11:26.328Z,69.30
2019-03-08T22:13:53.102Z,69.20
2019-03-08T22:16:19.621Z,69.30
2019-03-08T22:18:46.177Z,69.30
2019-03-08T22:21:12.480Z,69.30
2019-03-08T22:23:38.934Z,69.30
2019-03-08T22:26:06.272Z,69.30
2019-03-08T22:28:32.709Z,69.20
2019-03-08T22:30:58.995Z,69.20
2019-03-08T22:33:25.247Z,69.40
2019-03-08T22:35:51.503Z,69.40
2019-03-08T22:38:37.640Z,69.30
2019-03-08T22:41:03.956Z,69.30
2019-03-08T22:43:30.343Z,69.30
2019-03-08T22:45:56.597Z,69.40
2019-03-08T22:48:22.855Z,69.40
2019-03-08T22:50:49.143Z,69.50
2019-03-08T22:53:15.395Z,69.40
2019-03-08T22:55:41.653Z,69.30
2019-03-08T22:58:07.943Z,69.20
2019-03-08T23:00:52.910Z,69.30
2019-03-08T23:03:19.288Z,69.20
2019-03-08T23:05:45.887Z,69.20
2019-03-08T23:08:12.130Z,69.20
2019-03-08T23:10:38.390Z,69.20
2019-03-08T23:13:04.656Z,69.20
2019-03-08T23:15:30.989Z,69.20
2019-03-08T23:17:57.341Z,69.10
2019-03-08T23:20:23.590Z,68.90
2019-03-08T23:22:49.870Z,69.10
2019-03-08T23:25:16.124Z,69.20
2019-03-08T23:30:36.463Z,68.80
2019-03-08T23:33:02.686Z,68.80
2019-03-08T23:35:42.236Z,68.70
2019-03-08T23:38:08.500Z,68.60
2019-03-08T23:40:34.740Z,68.60
2019-03-08T23:43:01.001Z,68.60
2019-03-08T23:45:27.268Z,68.60
2019-03-08T23:47:53.589Z,68.70
2019-03-08T23:50:20.037Z,68.70
2019-03-08T23:52:46.299Z,68.70
2019-03-08T23:55:12.552Z,68.80
2019-03-08T23:57:38.852Z,68.60
